createdAt,value
2023-08-11T00:07:02.549Z,54
2023-08-11T00:17:02.924Z,54
2023-08-11T00:27:02.548Z,55
2023-08-11T00:37:02.523Z,55
2023-08-11T00:47:02.870Z,55
2023-08-11T00:57:02.469Z,56
2023-08-11T01:07:02.465Z,57
2023-08-11T01:17:02.400Z,57
2023-08-11T01:27:02.422Z,57
2023-08-11T01:37:02.358Z,57
2023-08-11T01:47:02.325Z,57
2023-08-11T01:57:02.382Z,58
2023-08-11T02:07:02.322Z,58
2023-08-11T02:17:02.300Z,59
2023-08-11T02:27:02.309Z,59
2023-08-11T02:37:02.298Z,59
2023-08-11T02:47:02.225Z,59
2023-08-11T02:57:02.244Z,59
2023-08-11T03:07:02.660Z,59
2023-08-11T03:17:02.169Z,60
2023-08-11T03:27:02.206Z,60
2023-08-11T03:37:02.206Z,62
2023-08-11T03:47:02.172Z,63
2023-08-11T03:57:02.164Z,64
2023-08-11T04:07:02.543Z,65
2023-08-11T04:17:02.148Z,66
2023-08-11T04:27:02.532Z,66
2023-08-11T04:37:03.990Z,66
2023-08-11T04:47:02.046Z,66
2023-08-11T04:57:02.047Z,66
2023-08-11T05:07:01.999Z,67
2023-08-11T05:17:04.096Z,67
2023-08-11T05:27:01.979Z,66
2023-08-11T05:37:01.961Z,64
2023-08-11T05:47:01.925Z,63
2023-08-11T05:57:01.919Z,63
2023-08-11T06:07:01.902Z,63
2023-08-11T06:17:01.839Z,63
2023-08-11T06:27:02.329Z,63
2023-08-11T06:37:01.888Z,63
2023-08-11T06:47:01.823Z,64
2023-08-11T06:57:02.281Z,62
2023-08-11T07:07:01.846Z,61
2023-08-11T07:17:01.784Z,60
2023-08-11T07:27:02.187Z,59
2023-08-11T07:37:01.758Z,58
2023-08-11T07:47:02.132Z,57
2023-08-11T07:57:01.726Z,55
2023-08-11T08:07:01.693Z,54
2023-08-11T08:17:01.661Z,53
2023-08-11T08:27:01.641Z,52
2023-08-11T08:37:01.754Z,51
2023-08-11T08:47:01.574Z,50
2023-08-11T08:57:01.613Z,48
2023-08-11T09:07:01.994Z,47
2023-08-11T09:17:03.609Z,46
2023-08-11T09:27:01.556Z,45
2023-08-11T09:37:01.534Z,44
2023-08-11T09:47:14.875Z,42
2023-08-11T09:57:03.432Z,42
2023-08-11T10:07:01.494Z,41
2023-08-11T10:17:01.461Z,40
2023-08-11T10:27:01.585Z,40
2023-08-11T10:37:01.858Z,40
2023-08-11T10:47:01.546Z,40
2023-08-11T10:57:01.522Z,39
2023-08-11T11:07:01.438Z,38
2023-08-11T11:17:01.883Z,38
2023-08-11T11:27:01.413Z,37
2023-08-11T11:37:01.388Z,37
2023-08-11T11:47:01.339Z,36
2023-08-11T11:57:04.754Z,36
2023-08-11T12:07:03.284Z,36
2023-08-11T12:17:01.305Z,36
2023-08-11T12:27:01.310Z,35
2023-08-11T12:37:01.730Z,35
2023-08-11T12:47:01.235Z,35
2023-08-11T12:57:01.295Z,36
2023-08-11T13:07:01.286Z,36
2023-08-11T13:17:01.198Z,37
2023-08-11T13:27:01.209Z,38
2023-08-11T13:37:01.646Z,39
2023-08-11T13:47:01.170Z,39
2023-08-11T13:57:01.175Z,39
2023-08-11T14:07:18.355Z,40
2023-08-11T14:17:01.131Z,39
2023-08-11T14:27:01.143Z,39
2023-08-11T14:37:01.090Z,38
2023-08-11T14:47:01.118Z,37
2023-08-11T14:57:01.084Z,36
2023-08-11T15:07:01.216Z,35
2023-08-11T15:17:01.175Z,35
2023-08-11T15:27:01.463Z,35
2023-08-11T15:37:01.011Z,34
2023-08-11T15:47:01.357Z,34
2023-08-11T15:57:00.984Z,34
2023-08-11T16:07:00.954Z,34
2023-08-11T16:17:00.873Z,34
2023-08-11T16:27:00.912Z,33
2023-08-11T16:37:01.326Z,33
2023-08-11T16:47:00.856Z,33
2023-08-11T16:57:00.873Z,34
2023-08-11T17:07:00.822Z,34
2023-08-11T17:17:00.849Z,34
2023-08-11T17:27:00.811Z,34
2023-08-11T17:37:00.803Z,35
2023-08-11T17:47:00.810Z,35
2023-08-11T17:57:00.753Z,36
2023-08-11T18:07:00.731Z,37
2023-08-11T18:17:00.740Z,37
2023-08-11T18:37:01.147Z,38
2023-08-11T18:47:00.642Z,38
2023-08-11T18:57:00.673Z,38
2023-08-11T19:07:00.646Z,39
2023-08-11T19:17:00.596Z,39
2023-08-11T19:27:00.573Z,39
2023-08-11T19:37:00.550Z,40
2023-08-11T19:47:00.532Z,41
2023-08-11T19:57:00.558Z,42
2023-08-11T20:07:00.526Z,42
2023-08-11T20:17:00.475Z,42
2023-08-11T20:27:00.475Z,43
2023-08-11T20:37:00.429Z,44
2023-08-11T20:47:00.403Z,44
2023-08-11T21:07:00.401Z,45
2023-08-11T21:17:03.259Z,46
2023-08-11T21:27:00.447Z,47
2023-08-11T21:37:00.378Z,47
2023-08-11T21:47:00.285Z,47
2023-08-11T21:57:00.756Z,48
2023-08-11T22:07:00.311Z,48
2023-08-11T22:17:00.261Z,48
2023-08-11T22:27:00.647Z,48
2023-08-11T22:37:00.273Z,50
2023-08-11T22:47:00.199Z,50
2023-08-11T22:57:00.216Z,51
2023-08-11T23:07:00.204Z,52
2023-08-11T23:17:00.125Z,51
2023-08-11T23:27:00.174Z,51
2023-08-11T23:37:00.129Z,51
2023-08-11T23:47:00.068Z,51
2023-08-11T23:57:00.077Z,52
